Time;durP1;ratioP1;P1;durP2;ratioP2;P2;SDS_P1;SDS_P2;PMS_P1;PMS_P2;Temp;Humidity;BMP_temperature;BMP_pressure;BME280_temperature;BME280_humidity;BME280_pressure;Samples;Min_cycle;Max_cycle;Signal;HPM_P1;HPM_P2
2021/08/19 00:02:23;;;;;;;0.00;0.00;;;;;;;;;;5046947;28;20525;-68
2021/08/19 00:04:51;;;;;;;0.10;0.10;;;;;;;;;;5066502;28;20408;-68
2021/08/19 00:07:17;;;;;;;0.10;0.10;;;;;;;;;;5053454;28;20244;-68
2021/08/19 00:09:43;;;;;;;0.00;0.00;;;;;;;;;;5060450;28;20253;-68
2021/08/19 00:12:12;;;;;;;0.10;0.10;;;;;;;;;;5057851;28;20213;-68
2021/08/19 00:14:40;;;;;;;0.00;0.00;;;;;;;;;;5049199;28;20210;-68
2021/08/19 00:17:08;;;;;;;0.00;0.00;;;;;;;;;;5055952;28;20207;-67
2021/08/19 00:19:34;;;;;;;0.10;0.10;;;;;;;;;;5050217;28;20222;-67
2021/08/19 00:22:01;;;;;;;0.10;0.10;;;;;;;;;;5054385;28;20225;-67
2021/08/19 00:24:27;;;;;;;0.00;0.00;;;;;;;;;;5065453;28;20214;-68
2021/08/19 00:26:54;;;;;;;0.00;0.00;;;;;;;;;;5052299;28;20263;-68
2021/08/19 00:29:21;;;;;;;0.10;0.10;;;;;;;;;;5053376;28;20208;-67
2021/08/19 00:31:49;;;;;;;0.10;0.10;;;;;;;;;;5050872;28;20207;-68
2021/08/19 00:34:16;;;;;;;0.05;0.05;;;;;;;;;;5055044;28;20392;-67
2021/08/19 00:36:42;;;;;;;0.00;0.00;;;;;;;;;;5049487;28;20202;-68
2021/08/19 00:39:08;;;;;;;0.10;0.10;;;;;;;;;;5065876;28;20198;-67
2021/08/19 00:41:35;;;;;;;0.10;0.10;;;;;;;;;;5066659;28;20235;-68
2021/08/19 00:44:01;;;;;;;0.35;0.35;;;;;;;;;;5057478;28;20207;-68
2021/08/19 00:46:30;;;;;;;0.10;0.10;;;;;;;;;;5049699;28;20301;-67
2021/08/19 00:49:00;;;;;;;0.10;0.10;;;;;;;;;;5059435;28;20452;-67
2021/08/19 00:51:26;;;;;;;0.05;0.05;;;;;;;;;;5059249;28;20444;-66
2021/08/19 00:53:53;;;;;;;0.10;0.10;;;;;;;;;;5046071;28;20207;-68
2021/08/19 00:56:19;;;;;;;0.10;0.10;;;;;;;;;;5046672;28;20396;-69
2021/08/19 00:58:45;;;;;;;0.10;0.10;;;;;;;;;;5065283;28;20428;-68
2021/08/19 01:01:11;;;;;;;0.10;0.10;;;;;;;;;;5064976;28;20309;-68
2021/08/19 01:03:40;;;;;;;0.10;0.10;;;;;;;;;;5051224;28;20288;-68
2021/08/19 01:06:06;;;;;;;0.10;0.10;;;;;;;;;;5065779;28;20516;-67
2021/08/19 01:08:34;;;;;;;0.10;0.10;;;;;;;;;;5059551;28;20507;-68
2021/08/19 01:11:00;;;;;;;0.10;0.10;;;;;;;;;;5055296;28;20202;-67
2021/08/19 01:13:26;;;;;;;0.10;0.10;;;;;;;;;;5063144;28;20447;-68
2021/08/19 01:15:52;;;;;;;0.10;0.10;;;;;;;;;;5052831;28;20442;-68
2021/08/19 01:18:18;;;;;;;0.10;0.10;;;;;;;;;;5064938;28;20271;-68
2021/08/19 01:20:46;;;;;;;0.10;0.10;;;;;;;;;;5059582;28;20208;-67
2021/08/19 01:23:12;;;;;;;0.05;0.05;;;;;;;;;;5056572;28;20226;-67
2021/08/19 01:25:39;;;;;;;0.00;0.00;;;;;;;;;;5050907;28;20419;-68
2021/08/19 01:28:06;;;;;;;0.10;0.10;;;;;;;;;;5054623;28;20206;-67
2021/08/19 01:30:33;;;;;;;0.00;0.00;;;;;;;;;;5044632;28;20222;-67
2021/08/19 01:32:59;;;;;;;0.10;0.10;;;;;;;;;;5053063;28;20220;-68
2021/08/19 01:35:27;;;;;;;0.10;0.10;;;;;;;;;;5064368;28;20240;-68
2021/08/19 01:37:53;;;;;;;0.10;0.10;;;;;;;;;;5044678;28;20249;-67
2021/08/19 01:40:19;;;;;;;0.10;0.10;;;;;;;;;;5057416;28;20204;-67
2021/08/19 01:42:46;;;;;;;0.10;0.10;;;;;;;;;;5064780;28;20223;-67
2021/08/19 01:45:15;;;;;;;0.10;0.10;;;;;;;;;;5053686;28;20252;-67
2021/08/19 01:47:41;;;;;;;0.00;0.00;;;;;;;;;;5058694;28;20207;-67
2021/08/19 01:50:08;;;;;;;0.00;0.00;;;;;;;;;;5044414;28;20247;-66
2021/08/19 01:52:35;;;;;;;0.10;0.10;;;;;;;;;;5044565;28;20254;-67
2021/08/19 01:55:01;;;;;;;0.00;0.00;;;;;;;;;;5044474;28;20494;-68
2021/08/19 01:57:28;;;;;;;0.00;0.00;;;;;;;;;;5050772;28;20267;-68
2021/08/19 01:59:54;;;;;;;0.03;0.03;;;;;;;;;;5045299;28;20201;-68
2021/08/19 02:02:22;;;;;;;0.00;0.00;;;;;;;;;;5055935;28;20404;-68
2021/08/19 02:04:48;;;;;;;0.10;0.10;;;;;;;;;;5060979;28;20207;-67
2021/08/19 02:07:14;;;;;;;0.10;0.10;;;;;;;;;;5044288;28;20379;-67
2021/08/19 02:09:40;;;;;;;0.00;0.00;;;;;;;;;;5058433;28;20206;-68
2021/08/19 02:12:07;;;;;;;0.03;0.03;;;;;;;;;;5043982;28;20206;-68
2021/08/19 02:14:33;;;;;;;0.05;0.05;;;;;;;;;;5043327;28;20205;-68
2021/08/19 02:16:59;;;;;;;0.00;0.00;;;;;;;;;;5058208;28;20210;-68
2021/08/19 02:19:27;;;;;;;0.00;0.00;;;;;;;;;;5055731;28;20224;-68
2021/08/19 02:21:53;;;;;;;0.00;0.00;;;;;;;;;;5059784;28;20219;-67
2021/08/19 02:24:20;;;;;;;0.10;0.10;;;;;;;;;;5053680;28;20264;-68
2021/08/19 02:26:46;;;;;;;0.00;0.00;;;;;;;;;;5049247;28;20307;-68
2021/08/19 02:29:13;;;;;;;0.00;0.00;;;;;;;;;;5064014;28;20276;-68
2021/08/19 02:31:41;;;;;;;0.00;0.00;;;;;;;;;;5049699;28;20217;-69
2021/08/19 02:34:07;;;;;;;0.00;0.00;;;;;;;;;;5050620;28;20280;-69
2021/08/19 02:36:35;;;;;;;0.00;0.00;;;;;;;;;;5050892;28;20268;-69
2021/08/19 02:39:01;;;;;;;0.10;0.10;;;;;;;;;;5048664;28;20515;-68
2021/08/19 02:41:28;;;;;;;0.10;0.10;;;;;;;;;;5063403;28;20204;-68
2021/08/19 02:43:55;;;;;;;0.10;0.10;;;;;;;;;;5060392;28;20263;-68
2021/08/19 02:46:21;;;;;;;0.00;0.00;;;;;;;;;;5053130;28;20204;-68
2021/08/19 02:48:48;;;;;;;0.10;0.10;;;;;;;;;;5061724;28;20206;-68
2021/08/19 02:51:14;;;;;;;0.10;0.10;;;;;;;;;;5045447;28;20255;-68
2021/08/19 02:53:41;;;;;;;0.00;0.00;;;;;;;;;;5053041;28;20463;-68
2021/08/19 02:56:08;;;;;;;0.10;0.10;;;;;;;;;;5061557;28;20258;-68
2021/08/19 02:58:34;;;;;;;0.10;0.10;;;;;;;;;;5051575;28;20206;-68
2021/08/19 03:01:03;;;;;;;2.78;2.15;;;;;;;;;;5063038;28;20204;-70
2021/08/19 03:03:30;;;;;;;0.03;0.03;;;;;;;;;;5049856;28;20234;-68
2021/08/19 03:05:56;;;;;;;0.10;0.10;;;;;;;;;;5063156;28;20231;-68
2021/08/19 03:08:22;;;;;;;0.00;0.00;;;;;;;;;;5044857;28;20201;-68
2021/08/19 03:10:50;;;;;;;0.00;0.00;;;;;;;;;;5054202;28;20476;-67
2021/08/19 03:13:16;;;;;;;0.05;0.05;;;;;;;;;;5048987;28;20423;-68
2021/08/19 03:15:42;;;;;;;0.10;0.10;;;;;;;;;;5062789;28;20249;-68
2021/08/19 03:18:08;;;;;;;0.00;0.00;;;;;;;;;;5048569;28;20252;-68
2021/08/19 03:20:35;;;;;;;0.08;0.08;;;;;;;;;;5056219;28;20207;-68
2021/08/19 03:23:01;;;;;;;0.10;0.10;;;;;;;;;;5056257;28;20521;-68
2021/08/19 03:25:27;;;;;;;0.00;0.00;;;;;;;;;;5052004;28;20230;-69
2021/08/19 03:28:00;;;;;;;0.00;0.00;;;;;;;;;;5067232;28;20208;-69
2021/08/19 03:30:26;;;;;;;0.10;0.10;;;;;;;;;;5052726;28;20206;-68
2021/08/19 03:32:52;;;;;;;0.08;0.08;;;;;;;;;;5056919;28;20199;-68
2021/08/19 03:35:19;;;;;;;0.00;0.00;;;;;;;;;;5063989;28;20504;-68
2021/08/19 03:37:45;;;;;;;0.00;0.00;;;;;;;;;;5067282;28;20208;-67
2021/08/19 03:40:12;;;;;;;0.10;0.10;;;;;;;;;;5052747;28;20210;-67
2021/08/19 03:42:38;;;;;;;0.10;0.10;;;;;;;;;;5066631;28;20204;-67
2021/08/19 03:45:08;;;;;;;0.05;0.05;;;;;;;;;;5054087;28;20291;-67
2021/08/19 03:47:34;;;;;;;0.08;0.08;;;;;;;;;;5052208;28;20238;-67
2021/08/19 03:50:01;;;;;;;0.10;0.10;;;;;;;;;;5066639;28;20205;-67
2021/08/19 03:52:27;;;;;;;0.10;0.10;;;;;;;;;;5052804;28;20203;-68
2021/08/19 03:54:53;;;;;;;0.03;0.03;;;;;;;;;;5046695;28;20207;-67
2021/08/19 03:57:19;;;;;;;0.00;0.00;;;;;;;;;;5046534;28;20383;-67
2021/08/19 03:59:45;;;;;;;0.00;0.00;;;;;;;;;;5046615;28;20260;-67
2021/08/19 04:02:13;;;;;;;0.00;0.00;;;;;;;;;;5055475;28;20201;-67
2021/08/19 04:04:39;;;;;;;0.10;0.10;;;;;;;;;;5052136;28;20233;-67
2021/08/19 04:07:06;;;;;;;0.10;0.10;;;;;;;;;;5058178;28;20207;-67
2021/08/19 04:09:32;;;;;;;0.10;0.10;;;;;;;;;;5060639;28;20212;-68
2021/08/19 04:11:58;;;;;;;0.10;0.10;;;;;;;;;;5052315;28;20201;-67
2021/08/19 04:14:24;;;;;;;0.10;0.10;;;;;;;;;;5053941;28;20310;-68
2021/08/19 04:16:50;;;;;;;0.10;0.10;;;;;;;;;;5046262;28;20202;-67
2021/08/19 04:19:18;;;;;;;0.00;0.00;;;;;;;;;;5056806;28;20229;-69
2021/08/19 04:21:45;;;;;;;0.10;0.10;;;;;;;;;;5049508;28;20244;-69
2021/08/19 04:24:11;;;;;;;0.03;0.03;;;;;;;;;;5046459;28;20228;-69
2021/08/19 04:26:37;;;;;;;0.10;0.10;;;;;;;;;;5046874;28;20239;-68
2021/08/19 04:29:04;;;;;;;0.10;0.10;;;;;;;;;;5066331;28;20234;-68
2021/08/19 04:31:30;;;;;;;0.10;0.10;;;;;;;;;;5066078;28;20209;-69
2021/08/19 04:33:57;;;;;;;0.10;0.10;;;;;;;;;;5065980;28;20533;-68
2021/08/19 04:36:25;;;;;;;0.08;0.08;;;;;;;;;;5053876;28;20419;-68
2021/08/19 04:38:51;;;;;;;0.00;0.00;;;;;;;;;;5045801;28;20204;-68
2021/08/19 04:41:17;;;;;;;0.10;0.10;;;;;;;;;;5046106;28;20252;-68
2021/08/19 04:43:43;;;;;;;0.00;0.00;;;;;;;;;;5059593;28;20446;-68
2021/08/19 04:46:09;;;;;;;0.10;0.10;;;;;;;;;;5053332;28;20541;-67
2021/08/19 04:48:36;;;;;;;0.10;0.10;;;;;;;;;;5051687;28;20205;-67
2021/08/19 04:51:02;;;;;;;0.10;0.10;;;;;;;;;;5059321;28;20217;-69
2021/08/19 04:53:29;;;;;;;0.00;0.00;;;;;;;;;;5045819;28;20408;-67
2021/08/19 04:55:56;;;;;;;0.10;0.10;;;;;;;;;;5045547;28;20210;-68
2021/08/19 04:58:22;;;;;;;0.10;0.10;;;;;;;;;;5051985;28;20265;-68
2021/08/19 05:00:48;;;;;;;0.10;0.10;;;;;;;;;;5065117;28;20450;-68
2021/08/19 05:03:16;;;;;;;0.00;0.00;;;;;;;;;;5046704;28;20255;-67
2021/08/19 05:05:42;;;;;;;0.10;0.10;;;;;;;;;;5056065;28;20208;-67
2021/08/19 05:08:08;;;;;;;0.10;0.10;;;;;;;;;;5061551;28;20273;-67
2021/08/19 05:10:36;;;;;;;0.00;0.00;;;;;;;;;;5055498;28;20225;-68
2021/08/19 05:13:02;;;;;;;0.10;0.10;;;;;;;;;;5065344;28;20209;-68
2021/08/19 05:15:28;;;;;;;0.10;0.10;;;;;;;;;;5065080;28;20257;-68
2021/08/19 05:17:55;;;;;;;0.10;0.10;;;;;;;;;;5050751;28;20432;-68
2021/08/19 05:20:21;;;;;;;0.10;0.10;;;;;;;;;;5058244;28;20213;-68
2021/08/19 05:22:47;;;;;;;0.00;0.00;;;;;;;;;;5058207;28;20239;-67
2021/08/19 05:25:14;;;;;;;0.10;0.10;;;;;;;;;;5051017;28;20497;-67
2021/08/19 05:27:42;;;;;;;0.05;0.05;;;;;;;;;;5064804;28;20248;-67
2021/08/19 05:30:09;;;;;;;0.00;0.00;;;;;;;;;;5047799;28;20493;-67
2021/08/19 05:32:35;;;;;;;0.10;0.10;;;;;;;;;;5053927;28;20258;-68
2021/08/19 05:35:03;;;;;;;0.10;0.10;;;;;;;;;;5066909;28;20202;-66
2021/08/19 05:37:29;;;;;;;0.10;0.10;;;;;;;;;;5057218;28;20248;-67
2021/08/19 05:39:55;;;;;;;0.10;0.10;;;;;;;;;;5045338;28;20256;-69
2021/08/19 05:42:22;;;;;;;0.00;0.00;;;;;;;;;;5059044;28;20256;-68
2021/08/19 05:44:49;;;;;;;0.10;0.10;;;;;;;;;;5044862;28;20427;-69
2021/08/19 05:47:15;;;;;;;0.10;0.10;;;;;;;;;;5048711;28;20209;-69
2021/08/19 05:49:43;;;;;;;0.10;0.10;;;;;;;;;;5054262;28;20210;-68
2021/08/19 05:52:12;;;;;;;0.00;0.00;;;;;;;;;;5055717;28;20217;-67
2021/08/19 05:54:38;;;;;;;0.10;0.10;;;;;;;;;;5050635;28;20433;-66
2021/08/19 05:57:04;;;;;;;0.10;0.10;;;;;;;;;;5064417;28;20200;-66
2021/08/19 05:59:31;;;;;;;0.08;0.08;;;;;;;;;;5050963;28;20502;-66
2021/08/19 06:01:58;;;;;;;0.10;0.10;;;;;;;;;;5064552;28;20210;-65
2021/08/19 06:04:24;;;;;;;0.10;0.10;;;;;;;;;;5064604;28;20233;-67
2021/08/19 06:06:51;;;;;;;0.10;0.10;;;;;;;;;;5050336;28;20543;-64
2021/08/19 06:09:17;;;;;;;0.10;0.10;;;;;;;;;;5051765;28;20501;-65
2021/08/19 06:11:43;;;;;;;0.00;0.00;;;;;;;;;;5062222;28;20201;-65
2021/08/19 06:14:10;;;;;;;0.10;0.10;;;;;;;;;;5064043;28;20201;-65
2021/08/19 06:16:36;;;;;;;0.10;0.10;;;;;;;;;;5049543;28;20456;-65
2021/08/19 06:19:03;;;;;;;0.10;0.10;;;;;;;;;;5054917;28;20247;-65
2021/08/19 06:21:30;;;;;;;0.08;0.08;;;;;;;;;;5043761;28;20387;-65
2021/08/19 06:23:56;;;;;;;0.10;0.10;;;;;;;;;;5043622;28;20283;-64
2021/08/19 06:26:22;;;;;;;0.00;0.00;;;;;;;;;;5056183;28;20205;-65
2021/08/19 06:28:48;;;;;;;0.10;0.10;;;;;;;;;;5044540;28;20214;-65
2021/08/19 06:31:15;;;;;;;0.00;0.00;;;;;;;;;;5054602;28;20205;-65
2021/08/19 06:33:41;;;;;;;0.10;0.10;;;;;;;;;;5046580;28;20489;-65
2021/08/19 06:36:09;;;;;;;0.08;0.08;;;;;;;;;;5043435;28;20383;-65
2021/08/19 06:38:35;;;;;;;0.00;0.00;;;;;;;;;;5043576;28;20214;-65
2021/08/19 06:41:01;;;;;;;0.10;0.10;;;;;;;;;;5051087;28;20385;-65
2021/08/19 06:43:27;;;;;;;0.10;0.10;;;;;;;;;;5063125;28;20212;-67
2021/08/19 06:45:53;;;;;;;0.00;0.00;;;;;;;;;;5049204;28;20206;-66
2021/08/19 06:48:20;;;;;;;0.10;0.10;;;;;;;;;;5051696;28;20386;-64
2021/08/19 06:50:46;;;;;;;0.00;0.00;;;;;;;;;;5043100;28;20239;-65
2021/08/19 06:53:13;;;;;;;0.05;0.05;;;;;;;;;;5063003;28;20209;-66
2021/08/19 06:55:39;;;;;;;0.10;0.10;;;;;;;;;;5051093;28;20367;-65
2021/08/19 06:58:06;;;;;;;0.00;0.00;;;;;;;;;;5059976;28;20204;-65
2021/08/19 07:00:32;;;;;;;0.03;0.03;;;;;;;;;;5052565;28;20206;-65
2021/08/19 07:02:58;;;;;;;0.10;0.10;;;;;;;;;;5042960;28;20211;-66
2021/08/19 07:05:24;;;;;;;0.10;0.10;;;;;;;;;;5042899;28;20225;-65
2021/08/19 07:07:54;;;;;;;0.00;0.00;;;;;;;;;;5043522;28;20387;-65
2021/08/19 07:10:22;;;;;;;0.10;0.10;;;;;;;;;;5062844;28;20211;-64
2021/08/19 07:12:48;;;;;;;0.10;0.10;;;;;;;;;;5049875;28;20209;-65
2021/08/19 07:15:14;;;;;;;0.00;0.00;;;;;;;;;;5042611;28;20205;-66
2021/08/19 07:17:40;;;;;;;0.10;0.10;;;;;;;;;;5042874;28;20229;-66
2021/08/19 07:20:07;;;;;;;0.00;0.00;;;;;;;;;;5057813;28;20205;-65
2021/08/19 07:22:34;;;;;;;0.00;0.00;;;;;;;;;;5043170;28;20254;-67
2021/08/19 07:25:00;;;;;;;0.10;0.10;;;;;;;;;;5042787;28;20412;-65
2021/08/19 07:27:28;;;;;;;0.10;0.10;;;;;;;;;;5050456;28;20208;-65
2021/08/19 07:29:54;;;;;;;0.00;0.00;;;;;;;;;;5049049;28;20210;-65
2021/08/19 07:32:20;;;;;;;0.10;0.10;;;;;;;;;;5043268;28;20247;-67
2021/08/19 07:34:47;;;;;;;0.10;0.10;;;;;;;;;;5042817;28;20225;-66
2021/08/19 07:37:13;;;;;;;0.10;0.10;;;;;;;;;;5042844;28;20206;-65
2021/08/19 07:39:39;;;;;;;0.10;0.10;;;;;;;;;;5053039;28;20269;-65
2021/08/19 07:42:05;;;;;;;0.10;0.10;;;;;;;;;;5046419;28;20218;-65
2021/08/19 07:44:33;;;;;;;0.10;0.10;;;;;;;;;;5051207;28;20289;-66
2021/08/19 07:46:59;;;;;;;0.10;0.10;;;;;;;;;;5056414;28;20234;-65
2021/08/19 07:49:25;;;;;;;0.00;0.00;;;;;;;;;;5043107;28;20245;-66
2021/08/19 07:51:52;;;;;;;0.00;0.00;;;;;;;;;;5042528;28;20224;-65
2021/08/19 07:54:18;;;;;;;0.10;0.10;;;;;;;;;;5042610;28;20203;-66
2021/08/19 07:56:44;;;;;;;0.10;0.10;;;;;;;;;;5042653;28;20207;-65
2021/08/19 07:59:11;;;;;;;0.10;0.10;;;;;;;;;;5042870;28;20544;-65
2021/08/19 08:01:38;;;;;;;0.00;0.00;;;;;;;;;;5042676;28;20203;-65
2021/08/19 08:04:07;;;;;;;0.00;0.00;;;;;;;;;;5042664;28;20235;-66
2021/08/19 08:06:33;;;;;;;0.10;0.10;;;;;;;;;;5056573;28;20206;-65
2021/08/19 08:08:59;;;;;;;0.00;0.00;;;;;;;;;;5042518;28;20252;-66
2021/08/19 08:11:25;;;;;;;0.10;0.10;;;;;;;;;;5045486;28;20320;-67
2021/08/19 08:13:51;;;;;;;0.00;0.00;;;;;;;;;;5058306;28;20224;-66
2021/08/19 08:16:18;;;;;;;0.08;0.08;;;;;;;;;;5060517;28;20546;-67
2021/08/19 08:18:46;;;;;;;0.10;0.10;;;;;;;;;;5045969;28;20274;-67
2021/08/19 08:21:13;;;;;;;0.10;0.10;;;;;;;;;;5045870;28;20214;-67
2021/08/19 08:23:40;;;;;;;0.10;0.10;;;;;;;;;;5059747;28;20241;-67
2021/08/19 08:26:06;;;;;;;0.00;0.00;;;;;;;;;;5045853;28;20272;-67
2021/08/19 08:28:32;;;;;;;0.00;0.00;;;;;;;;;;5060152;28;20246;-64
2021/08/19 08:30:59;;;;;;;0.10;0.10;;;;;;;;;;5054501;28;20281;-66
2021/08/19 08:33:26;;;;;;;0.10;0.10;;;;;;;;;;5066212;28;20205;-66
2021/08/19 08:35:53;;;;;;;0.08;0.08;;;;;;;;;;5059047;28;20295;-67
2021/08/19 08:38:21;;;;;;;0.08;0.08;;;;;;;;;;5063244;28;20264;-67
2021/08/19 08:40:48;;;;;;;0.00;0.00;;;;;;;;;;5060091;28;20209;-67
2021/08/19 08:43:16;;;;;;;0.10;0.10;;;;;;;;;;5045737;28;20217;-67
2021/08/19 08:45:43;;;;;;;0.00;0.00;;;;;;;;;;5059223;28;20249;-68
2021/08/19 08:48:11;;;;;;;0.05;0.05;;;;;;;;;;5055613;28;20495;-67
2021/08/19 08:50:39;;;;;;;0.90;0.90;;;;;;;;;;5052467;28;20221;-67
2021/08/19 08:53:08;;;;;;;0.10;0.10;;;;;;;;;;5045483;28;20539;-67
2021/08/19 08:55:34;;;;;;;0.00;0.00;;;;;;;;;;5056960;28;20252;-68
2021/08/19 08:58:00;;;;;;;0.00;0.00;;;;;;;;;;5048483;28;20206;-68
2021/08/19 09:00:27;;;;;;;0.10;0.10;;;;;;;;;;5045430;28;20257;-67
2021/08/19 09:02:53;;;;;;;0.00;0.00;;;;;;;;;;5060252;28;20428;-67
2021/08/19 09:05:20;;;;;;;0.10;0.10;;;;;;;;;;5052490;28;20433;-67
2021/08/19 09:07:51;;;;;;;0.08;0.08;;;;;;;;;;5051567;28;20495;-68
2021/08/19 09:10:20;;;;;;;0.10;0.10;;;;;;;;;;5051793;28;20485;-67
2021/08/19 09:12:46;;;;;;;0.10;0.10;;;;;;;;;;5052254;28;20425;-68
2021/08/19 09:15:13;;;;;;;0.10;0.10;;;;;;;;;;5059427;28;20204;-66
2021/08/19 09:17:40;;;;;;;0.10;0.10;;;;;;;;;;5056377;28;20229;-66
2021/08/19 09:20:07;;;;;;;0.00;0.00;;;;;;;;;;5061546;28;20207;-67
2021/08/19 09:22:49;;;;;;;0.00;0.00;;;;;;;;;;5044815;28;20234;-67
2021/08/19 09:25:23;;;;;;;0.00;0.00;;;;;;;;;;5062253;28;20261;-68
2021/08/19 09:28:07;;;;;;;0.10;0.10;;;;;;;;;;5054442;28;20205;-66
2021/08/19 09:30:34;;;;;;;0.00;0.00;;;;;;;;;;5059243;28;20424;-67
2021/08/19 09:33:02;;;;;;;0.05;0.05;;;;;;;;;;5056069;28;20210;-67
2021/08/19 09:35:29;;;;;;;0.00;0.00;;;;;;;;;;5050723;28;20199;-66
2021/08/19 09:37:55;;;;;;;0.10;0.10;;;;;;;;;;5054825;28;20437;-67
2021/08/19 09:40:23;;;;;;;0.00;0.00;;;;;;;;;;5060870;28;20258;-65
2021/08/19 09:42:49;;;;;;;0.10;0.10;;;;;;;;;;5055987;28;20206;-66
2021/08/19 09:45:19;;;;;;;0.10;0.10;;;;;;;;;;5058620;28;20289;-66
2021/08/19 09:47:46;;;;;;;0.00;0.00;;;;;;;;;;5051706;28;20500;-66
2021/08/19 09:50:13;;;;;;;0.10;0.10;;;;;;;;;;5051353;28;20424;-66
2021/08/19 09:52:39;;;;;;;0.10;0.10;;;;;;;;;;5058351;28;20226;-66
2021/08/19 09:55:20;;;;;;;0.00;0.00;;;;;;;;;;5044046;28;20218;-66
2021/08/19 09:57:47;;;;;;;0.10;0.10;;;;;;;;;;5058048;28;20230;-66
2021/08/19 10:00:22;;;;;;;0.10;0.10;;;;;;;;;;5044145;28;20251;-65
2021/08/19 10:02:48;;;;;;;0.00;0.00;;;;;;;;;;5058036;28;20210;-66
2021/08/19 10:05:15;;;;;;;0.00;0.00;;;;;;;;;;5050551;28;20372;-66
2021/08/19 10:07:41;;;;;;;0.00;0.00;;;;;;;;;;5050862;28;20366;-66
2021/08/19 10:10:08;;;;;;;0.00;0.00;;;;;;;;;;5044082;28;20410;-66
2021/08/19 10:12:35;;;;;;;0.20;0.20;;;;;;;;;;5055176;28;20256;-65
2021/08/19 10:15:02;;;;;;;0.00;0.00;;;;;;;;;;5063784;28;20197;-65
2021/08/19 10:17:30;;;;;;;0.00;0.00;;;;;;;;;;5054457;28;20260;-65
2021/08/19 10:19:56;;;;;;;0.10;0.10;;;;;;;;;;5045631;28;20274;-66
2021/08/19 10:22:22;;;;;;;0.05;0.05;;;;;;;;;;5063487;28;20206;-66
2021/08/19 10:24:52;;;;;;;0.05;0.05;;;;;;;;;;5063881;28;20248;-66
2021/08/19 10:27:19;;;;;;;0.10;0.10;;;;;;;;;;5050398;28;20213;-66
2021/08/19 10:29:47;;;;;;;0.00;0.00;;;;;;;;;;5051227;28;20207;-65
2021/08/19 10:32:28;;;;;;;0.00;0.00;;;;;;;;;;5048490;28;20205;-65
2021/08/19 10:35:05;;;;;;;0.00;0.00;;;;;;;;;;5063154;28;20201;-66
2021/08/19 10:37:50;;;;;;;0.00;0.00;;;;;;;;;;5050163;28;20227;-66
2021/08/19 10:40:35;;;;;;;0.00;0.00;;;;;;;;;;5062317;28;20539;-66
2021/08/19 10:43:21;;;;;;;0.00;0.00;;;;;;;;;;5043420;28;20207;-66
2021/08/19 10:45:49;;;;;;;0.10;0.10;;;;;;;;;;5061668;28;20226;-67
2021/08/19 10:48:21;;;;;;;0.00;0.00;;;;;;;;;;5063388;28;20209;-67
2021/08/19 10:50:48;;;;;;;0.00;0.00;;;;;;;;;;5059259;28;20300;-66
2021/08/19 10:53:15;;;;;;;0.63;0.63;;;;;;;;;;5057309;28;20255;-68
2021/08/19 10:55:43;;;;;;;0.00;0.00;;;;;;;;;;5044936;28;20205;-67
2021/08/19 10:58:35;;;;;;;0.35;0.35;;;;;;;;;;5049483;28;20207;-66
2021/08/19 11:01:22;;;;;;;0.08;0.08;;;;;;;;;;5048191;28;20210;-71
2021/08/19 11:03:49;;;;;;;0.00;0.00;;;;;;;;;;5052768;28;20502;-68
2021/08/19 11:06:17;;;;;;;0.00;0.00;;;;;;;;;;5055147;28;20231;-67
2021/08/19 11:08:45;;;;;;;0.00;0.00;;;;;;;;;;5042907;28;20197;-66
2021/08/19 11:11:12;;;;;;;0.10;0.10;;;;;;;;;;5042898;28;20214;-66
2021/08/19 11:13:38;;;;;;;0.00;0.00;;;;;;;;;;5048710;28;20207;-66
2021/08/19 11:16:10;;;;;;;0.00;0.00;;;;;;;;;;5063155;28;20199;-66
2021/08/19 11:18:36;;;;;;;0.00;0.00;;;;;;;;;;5049037;28;20228;-68
2021/08/19 11:21:04;;;;;;;0.00;0.00;;;;;;;;;;5063068;28;20229;-67
2021/08/19 11:23:31;;;;;;;0.05;0.05;;;;;;;;;;5062776;28;20544;-67
2021/08/19 11:26:00;;;;;;;0.10;0.10;;;;;;;;;;5053858;28;20248;-67
2021/08/19 11:28:33;;;;;;;0.00;0.00;;;;;;;;;;5057223;28;20252;-66
2021/08/19 11:30:59;;;;;;;0.00;0.00;;;;;;;;;;5043311;28;20200;-67
2021/08/19 11:33:27;;;;;;;0.25;0.25;;;;;;;;;;5057350;28;20211;-66
2021/08/19 11:35:54;;;;;;;0.00;0.00;;;;;;;;;;5043094;28;20269;-66
2021/08/19 11:38:21;;;;;;;0.10;0.10;;;;;;;;;;5056270;28;20206;-66
2021/08/19 11:40:49;;;;;;;0.10;0.10;;;;;;;;;;5057292;28;20248;-65
2021/08/19 11:43:19;;;;;;;0.10;0.10;;;;;;;;;;5043247;28;20254;-66
2021/08/19 11:45:45;;;;;;;0.00;0.00;;;;;;;;;;5044999;28;20220;-66
2021/08/19 11:48:12;;;;;;;0.10;0.10;;;;;;;;;;5047064;28;20230;-67
2021/08/19 11:50:39;;;;;;;0.05;0.05;;;;;;;;;;5059163;28;20221;-66
2021/08/19 11:53:06;;;;;;;0.10;0.10;;;;;;;;;;5047889;28;20337;-66
2021/08/19 11:55:32;;;;;;;0.10;0.10;;;;;;;;;;5057727;28;20203;-66
2021/08/19 11:58:14;;;;;;;0.00;0.00;;;;;;;;;;5052684;28;20206;-66
2021/08/19 12:00:54;;;;;;;0.00;0.00;;;;;;;;;;5066949;28;20238;-67
2021/08/19 12:03:21;;;;;;;0.00;0.00;;;;;;;;;;5066832;28;20201;-67
2021/08/19 12:05:57;;;;;;;0.00;0.00;;;;;;;;;;5066369;28;20231;-66
2021/08/19 12:08:24;;;;;;;0.00;0.00;;;;;;;;;;5061798;28;20251;-65
2021/08/19 12:10:50;;;;;;;0.00;0.00;;;;;;;;;;5057069;28;20230;-65
2021/08/19 12:13:17;;;;;;;0.00;0.00;;;;;;;;;;5051917;28;20215;-66
2021/08/19 12:15:43;;;;;;;0.00;0.00;;;;;;;;;;5057165;28;20250;-65
2021/08/19 12:18:09;;;;;;;0.10;0.10;;;;;;;;;;5046129;28;20231;-68
2021/08/19 12:20:37;;;;;;;0.10;0.10;;;;;;;;;;5046219;28;20208;-66
2021/08/19 12:23:15;;;;;;;0.00;0.00;;;;;;;;;;5045919;28;20219;-65
2021/08/19 12:25:42;;;;;;;0.00;0.00;;;;;;;;;;5046412;28;20265;-66
2021/08/19 12:28:09;;;;;;;0.03;0.03;;;;;;;;;;5046113;28;20207;-65
2021/08/19 12:30:36;;;;;;;0.00;0.00;;;;;;;;;;5065346;28;20203;-65
2021/08/19 12:33:03;;;;;;;0.03;0.03;;;;;;;;;;5065743;28;20237;-66
2021/08/19 12:35:29;;;;;;;0.08;0.08;;;;;;;;;;5062094;28;20445;-66
2021/08/19 12:37:56;;;;;;;0.00;0.00;;;;;;;;;;5056177;28;20204;-65
2021/08/19 12:40:28;;;;;;;0.00;0.00;;;;;;;;;;5063405;28;20379;-64
2021/08/19 12:43:03;;;;;;;0.00;0.00;;;;;;;;;;5045844;28;20262;-64
2021/08/19 12:45:29;;;;;;;0.00;0.00;;;;;;;;;;5059822;28;20215;-65
2021/08/19 12:48:00;;;;;;;0.00;0.00;;;;;;;;;;5064241;28;20208;-65
2021/08/19 12:50:26;;;;;;;0.00;0.00;;;;;;;;;;5061484;28;20211;-66
2021/08/19 12:52:52;;;;;;;0.00;0.00;;;;;;;;;;5062565;28;20352;-65
2021/08/19 12:55:19;;;;;;;0.00;0.00;;;;;;;;;;5054652;28;20204;-66
2021/08/19 12:57:53;;;;;;;10.50;3.03;;;;;;;;;;5050516;28;20401;-66
2021/08/19 13:00:19;;;;;;;0.00;0.00;;;;;;;;;;5057085;28;20211;-66
2021/08/19 13:02:46;;;;;;;0.08;0.08;;;;;;;;;;5044973;28;20224;-66
2021/08/19 13:05:15;;;;;;;0.00;0.00;;;;;;;;;;5044843;28;20232;-66
2021/08/19 13:07:41;;;;;;;0.10;0.10;;;;;;;;;;5058086;28;20204;-66
2021/08/19 13:10:08;;;;;;;0.00;0.00;;;;;;;;;;5060065;28;20378;-67
2021/08/19 13:12:35;;;;;;;0.00;0.00;;;;;;;;;;5045007;28;20205;-66
2021/08/19 13:15:04;;;;;;;0.00;0.00;;;;;;;;;;5062423;28;20208;-66
2021/08/19 13:17:30;;;;;;;0.00;0.00;;;;;;;;;;5064634;28;20284;-67
2021/08/19 13:19:57;;;;;;;0.10;0.10;;;;;;;;;;5050752;28;20210;-66
2021/08/19 13:22:24;;;;;;;0.00;0.00;;;;;;;;;;5056877;28;20204;-66
2021/08/19 13:24:51;;;;;;;0.00;0.00;;;;;;;;;;5044659;28;20201;-67
2021/08/19 13:27:18;;;;;;;0.00;0.00;;;;;;;;;;5064619;28;20231;-68
2021/08/19 13:29:45;;;;;;;0.00;0.00;;;;;;;;;;5052305;28;20246;-67
2021/08/19 13:32:14;;;;;;;0.10;0.10;;;;;;;;;;5058977;28;20500;-67
2021/08/19 13:34:41;;;;;;;0.00;0.00;;;;;;;;;;5045049;28;20213;-67
2021/08/19 13:37:07;;;;;;;0.00;0.00;;;;;;;;;;5056556;28;20232;-67
2021/08/19 13:39:33;;;;;;;0.00;0.00;;;;;;;;;;5044599;28;20231;-67
2021/08/19 13:42:00;;;;;;;0.00;0.00;;;;;;;;;;5058942;28;20541;-67
2021/08/19 13:44:26;;;;;;;0.00;0.00;;;;;;;;;;5044379;28;20212;-67
2021/08/19 13:46:53;;;;;;;0.00;0.00;;;;;;;;;;5044494;28;20328;-67
2021/08/19 13:49:21;;;;;;;0.10;0.10;;;;;;;;;;5045108;28;20322;-67
2021/08/19 13:51:47;;;;;;;0.10;0.10;;;;;;;;;;5045030;28;20212;-67
2021/08/19 13:54:14;;;;;;;0.00;0.00;;;;;;;;;;5044786;28;20551;-67
2021/08/19 13:56:42;;;;;;;0.00;0.00;;;;;;;;;;5051898;28;20220;-67
2021/08/19 13:59:08;;;;;;;0.00;0.00;;;;;;;;;;5064369;28;20236;-66
2021/08/19 14:01:34;;;;;;;0.08;0.08;;;;;;;;;;5060124;28;20247;-66
2021/08/19 14:04:01;;;;;;;0.00;0.00;;;;;;;;;;5056156;28;20210;-66
2021/08/19 14:06:29;;;;;;;0.00;0.00;;;;;;;;;;5050132;28;20235;-67
2021/08/19 14:08:55;;;;;;;0.00;0.00;;;;;;;;;;5052867;28;20448;-66
2021/08/19 14:11:22;;;;;;;0.00;0.00;;;;;;;;;;5049031;28;20267;-66
2021/08/19 14:13:48;;;;;;;0.00;0.00;;;;;;;;;;5043832;28;20247;-66
2021/08/19 14:16:15;;;;;;;0.00;0.00;;;;;;;;;;5044519;28;20508;-67
2021/08/19 14:18:41;;;;;;;0.00;0.00;;;;;;;;;;5049512;28;20409;-66
2021/08/19 14:21:08;;;;;;;0.10;0.10;;;;;;;;;;5052189;28;20266;-66
2021/08/19 14:23:36;;;;;;;0.00;0.00;;;;;;;;;;5048181;28;20238;-65
2021/08/19 14:26:04;;;;;;;0.00;0.00;;;;;;;;;;5060392;28;20220;-66
2021/08/19 14:28:32;;;;;;;0.00;0.00;;;;;;;;;;5049658;28;20418;-65
2021/08/19 14:30:58;;;;;;;0.10;0.10;;;;;;;;;;5055090;28;20205;-66
2021/08/19 14:33:24;;;;;;;0.00;0.00;;;;;;;;;;5044619;28;20209;-66
2021/08/19 14:35:52;;;;;;;0.00;0.00;;;;;;;;;;5057344;28;20266;-66
2021/08/19 14:38:18;;;;;;;0.00;0.00;;;;;;;;;;5060641;28;20210;-66
2021/08/19 14:40:46;;;;;;;0.00;0.00;;;;;;;;;;5068636;28;20272;-65
2021/08/19 14:43:13;;;;;;;0.00;0.00;;;;;;;;;;5070528;28;20216;-66
2021/08/19 14:45:39;;;;;;;0.08;0.08;;;;;;;;;;5056588;28;20208;-67